Time;durP1;ratioP1;P1;durP2;ratioP2;P2;SDS_P1;SDS_P2;PMS_P1;PMS_P2;Temp;Humidity;BMP_temperature;BMP_pressure;BME280_temperature;BME280_humidity;BME280_pressure;Samples;Min_cycle;Max_cycle;Signal;HPM_P1;HPM_P2
2022/02/11 00:01:47;;;;;;;119.40;62.83;;;;;;;;;;6311822;28;20055;-68
2022/02/11 00:05:19;;;;;;;133.40;61.53;;;;;;;;;;6305686;28;20052;-68
2022/02/11 00:08:21;;;;;;;125.05;64.50;;;;;;;;;;6310708;28;20040;-68
2022/02/11 00:11:30;;;;;;;125.22;62.72;;;;;;;;;;6309131;28;20137;-68
2022/02/11 00:14:40;;;;;;;68.60;33.30;;;;;;;;;;6308708;28;20117;-66
2022/02/11 00:17:41;;;;;;;26.23;12.90;;;;;;;;;;6308039;28;20078;-65
2022/02/11 00:20:47;;;;;;;19.42;8.80;;;;;;;;;;6305554;28;20124;-66
2022/02/11 00:23:49;;;;;;;20.52;8.40;;;;;;;;;;6307680;28;20118;-66
2022/02/11 00:27:13;;;;;;;21.73;8.68;;;;;;;;;;6306845;28;20056;-67
2022/02/11 00:33:50;;;;;;;19.00;8.13;;;;;;;;;;6214837;28;20050;-66
2022/02/11 00:37:01;;;;;;;14.98;7.70;;;;;;;;;;6218037;28;20046;-66
2022/02/11 00:40:13;;;;;;;18.02;8.18;;;;;;;;;;6311813;28;20053;-66
2022/02/11 00:44:03;;;;;;;17.17;9.05;;;;;;;;;;6303567;28;20041;-67
2022/02/11 01:03:57;;;;;;;20.45;7.90;;;;;;;;;;6217235;28;20046;-66
2022/02/11 01:06:59;;;;;;;18.58;7.85;;;;;;;;;;6302784;28;20047;-66
2022/02/11 01:10:00;;;;;;;18.80;7.45;;;;;;;;;;6301901;28;20082;-66
2022/02/11 01:13:02;;;;;;;16.10;7.57;;;;;;;;;;6306160;28;20080;-66
2022/02/11 01:16:11;;;;;;;11.88;7.32;;;;;;;;;;6301848;28;20086;-66
2022/02/11 01:19:20;;;;;;;16.23;7.35;;;;;;;;;;6309672;28;20043;-66
2022/02/11 01:22:34;;;;;;;20.30;6.95;;;;;;;;;;6307608;28;20061;-66
2022/02/11 01:29:26;;;;;;;16.05;6.90;;;;;;;;;;6292019;28;20090;-66
2022/02/11 01:32:32;;;;;;;17.48;6.95;;;;;;;;;;6310036;28;20498;-66
2022/02/11 01:35:46;;;;;;;15.43;7.45;;;;;;;;;;6310283;28;20040;-66
2022/02/11 01:39:11;;;;;;;14.57;6.38;;;;;;;;;;6314727;28;20048;-66
2022/02/11 01:45:57;;;;;;;13.20;6.07;;;;;;;;;;6303310;28;20131;-66
2022/02/11 01:49:20;;;;;;;14.65;6.15;;;;;;;;;;6301354;28;20044;-66
2022/02/11 01:52:29;;;;;;;14.85;6.30;;;;;;;;;;6300717;28;20056;-66
2022/02/11 01:55:58;;;;;;;18.42;5.72;;;;;;;;;;6311385;28;20052;-66
2022/02/11 02:12:31;;;;;;;12.73;5.70;;;;;;;;;;6298079;28;20102;-66
2022/02/11 02:22:49;;;;;;;17.70;6.93;;;;;;;;;;6206957;28;20334;-66
2022/02/11 02:26:03;;;;;;;17.42;6.35;;;;;;;;;;6304155;28;20036;-66
2022/02/11 02:59:52;;;;;;;25.63;13.00;;;;;;;;;;6304623;28;20052;-66
2022/02/11 03:50:16;;;;;;;24.25;12.63;;;;;;;;;;6308757;28;20048;-66
2022/02/11 04:24:32;;;;;;;26.15;11.95;;;;;;;;;;6274210;28;20080;-65
2022/02/11 05:00:30;;;;;;;24.40;11.10;;;;;;;;;;6306302;28;20040;-66
2022/02/11 05:03:32;;;;;;;28.48;11.75;;;;;;;;;;6306339;28;20045;-66
2022/02/11 05:06:33;;;;;;;20.20;10.70;;;;;;;;;;6308407;28;20127;-66
2022/02/11 05:09:35;;;;;;;23.55;11.20;;;;;;;;;;6305397;28;20126;-66
2022/02/11 05:12:38;;;;;;;21.38;11.30;;;;;;;;;;6305205;28;20052;-67
2022/02/11 05:15:40;;;;;;;32.50;12.18;;;;;;;;;;6301037;28;20328;-67
2022/02/11 05:18:41;;;;;;;20.63;10.75;;;;;;;;;;6301088;28;20053;-66
2022/02/11 05:21:43;;;;;;;20.05;10.90;;;;;;;;;;6303311;28;20340;-66
2022/02/11 05:24:44;;;;;;;17.73;9.82;;;;;;;;;;6304841;28;20131;-66
2022/02/11 05:27:47;;;;;;;22.85;10.88;;;;;;;;;;6305700;28;20044;-66
2022/02/11 05:30:49;;;;;;;20.63;11.02;;;;;;;;;;6302389;28;20110;-66
2022/02/11 05:33:50;;;;;;;21.52;10.20;;;;;;;;;;6303452;28;20198;-67
2022/02/11 05:36:52;;;;;;;24.30;10.13;;;;;;;;;;6305324;28;20096;-66
2022/02/11 05:39:53;;;;;;;19.75;10.02;;;;;;;;;;6306473;28;20128;-66
2022/02/11 05:42:57;;;;;;;20.45;9.75;;;;;;;;;;6307734;28;20131;-66
2022/02/11 05:45:58;;;;;;;18.53;9.47;;;;;;;;;;6304555;28;20125;-66
2022/02/11 05:49:00;;;;;;;16.77;8.80;;;;;;;;;;6301470;28;20135;-66
2022/02/11 05:52:02;;;;;;;16.83;8.73;;;;;;;;;;6303348;28;20048;-66
2022/02/11 05:55:05;;;;;;;22.50;8.63;;;;;;;;;;6301626;28;20063;-66
2022/02/11 05:58:08;;;;;;;18.85;8.25;;;;;;;;;;6305233;28;20052;-66
2022/02/11 06:01:09;;;;;;;20.85;8.82;;;;;;;;;;6301104;28;20515;-66
2022/02/11 06:04:11;;;;;;;24.38;9.00;;;;;;;;;;6304579;28;20637;-66
2022/02/11 06:07:14;;;;;;;21.35;7.95;;;;;;;;;;6310352;28;20127;-66
2022/02/11 06:10:16;;;;;;;18.20;8.18;;;;;;;;;;6306815;28;20445;-66
2022/02/11 06:13:19;;;;;;;15.65;7.38;;;;;;;;;;6309999;28;20720;-66
2022/02/11 06:16:20;;;;;;;15.43;8.27;;;;;;;;;;6302820;28;20130;-66
2022/02/11 06:19:22;;;;;;;18.33;7.72;;;;;;;;;;6304200;28;20512;-66
2022/02/11 06:22:24;;;;;;;20.40;8.18;;;;;;;;;;6307298;28;20124;-66
2022/02/11 06:25:26;;;;;;;23.58;8.30;;;;;;;;;;6307774;28;20413;-66
2022/02/11 06:28:29;;;;;;;14.32;7.40;;;;;;;;;;6303845;28;20136;-66
2022/02/11 06:31:31;;;;;;;22.87;7.13;;;;;;;;;;6305531;28;20037;-66
2022/02/11 06:34:32;;;;;;;22.05;8.32;;;;;;;;;;6306883;28;20123;-67
2022/02/11 06:37:34;;;;;;;21.60;7.95;;;;;;;;;;6301985;28;20060;-69
2022/02/11 06:40:37;;;;;;;22.05;7.97;;;;;;;;;;6303771;28;20048;-66
2022/02/11 06:43:40;;;;;;;15.52;7.75;;;;;;;;;;6304413;28;20048;-66
2022/02/11 06:46:42;;;;;;;20.35;8.27;;;;;;;;;;6303845;28;20071;-65
2022/02/11 06:49:43;;;;;;;25.63;8.73;;;;;;;;;;6301113;28;20361;-65
2022/02/11 06:52:45;;;;;;;25.80;9.30;;;;;;;;;;6301324;28;20056;-67
2022/02/11 06:55:47;;;;;;;20.15;9.90;;;;;;;;;;6302421;28;20515;-67
2022/02/11 06:58:52;;;;;;;21.90;9.48;;;;;;;;;;6300467;28;20135;-66
2022/02/11 07:01:54;;;;;;;21.75;9.90;;;;;;;;;;6300172;28;20060;-67
2022/02/11 07:04:56;;;;;;;20.83;10.45;;;;;;;;;;6304385;28;20123;-67
2022/02/11 07:07:57;;;;;;;19.92;9.88;;;;;;;;;;6300902;28;20048;-67
2022/02/11 07:10:59;;;;;;;23.77;10.40;;;;;;;;;;6303059;28;20174;-67
2022/02/11 07:14:03;;;;;;;21.52;8.90;;;;;;;;;;6303176;28;20127;-67
2022/02/11 07:17:05;;;;;;;17.67;9.27;;;;;;;;;;6304521;28;20051;-66
2022/02/11 07:20:09;;;;;;;17.27;9.15;;;;;;;;;;6298617;28;20044;-67
2022/02/11 07:23:11;;;;;;;40.38;12.50;;;;;;;;;;6298686;28;20048;-67
2022/02/11 07:26:12;;;;;;;20.60;10.98;;;;;;;;;;6302648;28;20056;-66
2022/02/11 07:29:16;;;;;;;24.40;11.27;;;;;;;;;;6298290;28;20214;-66
2022/02/11 07:32:17;;;;;;;29.63;12.50;;;;;;;;;;6303894;28;20052;-66
2022/02/11 07:35:19;;;;;;;28.80;13.15;;;;;;;;;;6305640;28;20183;-66
2022/02/11 07:38:21;;;;;;;26.17;12.13;;;;;;;;;;6302958;28;20063;-66
2022/02/11 07:41:22;;;;;;;26.17;10.95;;;;;;;;;;6303941;28;20559;-66
2022/02/11 07:44:25;;;;;;;19.95;10.73;;;;;;;;;;6297918;28;20435;-66
2022/02/11 07:47:27;;;;;;;23.40;10.52;;;;;;;;;;6298209;28;20102;-67
2022/02/11 07:50:29;;;;;;;19.40;10.25;;;;;;;;;;6300410;28;20139;-67
2022/02/11 07:53:34;;;;;;;23.65;10.65;;;;;;;;;;6299591;28;20044;-66
2022/02/11 07:56:36;;;;;;;19.10;9.35;;;;;;;;;;6300103;28;20414;-67
2022/02/11 07:59:40;;;;;;;22.45;9.13;;;;;;;;;;6302114;28;20515;-67
2022/02/11 08:02:41;;;;;;;21.85;9.77;;;;;;;;;;6305087;28;20177;-67
2022/02/11 08:05:45;;;;;;;22.52;9.65;;;;;;;;;;6307310;28;20583;-67
2022/02/11 08:08:46;;;;;;;22.43;8.77;;;;;;;;;;6303955;28;20412;-66
2022/02/11 08:11:48;;;;;;;22.35;9.73;;;;;;;;;;6307186;28;20500;-66
2022/02/11 08:14:51;;;;;;;22.65;9.10;;;;;;;;;;6306655;28;20077;-66
2022/02/11 08:17:52;;;;;;;16.42;9.85;;;;;;;;;;6305602;28;20186;-66
2022/02/11 08:20:54;;;;;;;20.05;8.23;;;;;;;;;;6302034;28;20463;-66
2022/02/11 08:23:56;;;;;;;15.63;7.95;;;;;;;;;;6308293;28;20048;-67
2022/02/11 08:26:57;;;;;;;18.45;8.13;;;;;;;;;;6304474;28;20051;-67
2022/02/11 08:30:00;;;;;;;23.08;8.23;;;;;;;;;;6306522;28;20094;-68
2022/02/11 08:33:02;;;;;;;21.27;7.78;;;;;;;;;;6302177;28;20117;-66
2022/02/11 08:36:04;;;;;;;22.17;7.45;;;;;;;;;;6304978;28;20098;-67
2022/02/11 08:39:06;;;;;;;23.05;8.00;;;;;;;;;;6301126;28;20181;-66
2022/02/11 08:42:08;;;;;;;20.92;8.65;;;;;;;;;;6311138;28;20494;-67
2022/02/11 08:45:11;;;;;;;20.92;7.43;;;;;;;;;;6302435;28;20141;-67
2022/02/11 08:48:13;;;;;;;26.52;8.88;;;;;;;;;;6301069;28;20119;-67
2022/02/11 08:51:15;;;;;;;26.92;8.93;;;;;;;;;;6305007;28;20048;-66
2022/02/11 08:54:17;;;;;;;27.92;8.77;;;;;;;;;;6305846;28;20044;-67
2022/02/11 08:57:18;;;;;;;42.03;10.77;;;;;;;;;;6303914;28;20328;-66
2022/02/11 09:00:21;;;;;;;21.67;6.93;;;;;;;;;;6312113;28;20126;-66
2022/02/11 09:03:23;;;;;;;17.85;6.47;;;;;;;;;;6304763;28;20399;-69
2022/02/11 09:06:24;;;;;;;23.50;6.70;;;;;;;;;;6308669;28;20081;-66
2022/02/11 09:09:26;;;;;;;13.13;6.68;;;;;;;;;;6306448;28;20289;-65
2022/02/11 09:12:27;;;;;;;16.38;7.32;;;;;;;;;;6307641;28;20179;-67
2022/02/11 09:15:31;;;;;;;34.70;16.00;;;;;;;;;;6305336;28;20127;-65
2022/02/11 09:18:32;;;;;;;27.70;12.23;;;;;;;;;;6300214;28;20211;-64
2022/02/11 09:21:34;;;;;;;26.20;12.88;;;;;;;;;;6311839;28;20052;-67
2022/02/11 09:24:35;;;;;;;16.00;7.70;;;;;;;;;;6307272;28;20166;-66
2022/02/11 09:27:43;;;;;;;24.70;7.38;;;;;;;;;;6309032;28;20166;-67
2022/02/11 09:30:46;;;;;;;14.88;7.50;;;;;;;;;;6301695;28;20370;-67
2022/02/11 09:33:47;;;;;;;27.00;12.63;;;;;;;;;;6307868;28;20465;-67
2022/02/11 09:36:49;;;;;;;29.50;16.80;;;;;;;;;;6308647;28;20078;-67
2022/02/11 09:39:51;;;;;;;26.38;15.65;;;;;;;;;;6303633;28;20049;-67
2022/02/11 09:42:54;;;;;;;34.35;18.25;;;;;;;;;;6300452;28;20044;-67
2022/02/11 09:45:57;;;;;;;31.40;17.03;;;;;;;;;;6304325;28;20194;-68
2022/02/11 09:48:59;;;;;;;29.13;17.75;;;;;;;;;;6305443;28;20048;-68
2022/02/11 09:52:03;;;;;;;35.65;17.05;;;;;;;;;;6304690;28;20515;-66
2022/02/11 09:58:39;;;;;;;30.77;18.00;;;;;;;;;;6233407;28;20152;-67
2022/02/11 10:01:42;;;;;;;30.08;17.38;;;;;;;;;;6227376;28;20064;-66
2022/02/11 10:04:55;;;;;;;31.40;17.70;;;;;;;;;;6301125;28;20123;-66
2022/02/11 10:07:58;;;;;;;32.30;18.00;;;;;;;;;;6303112;28;20453;-67
2022/02/11 10:11:00;;;;;;;28.80;17.48;;;;;;;;;;6308676;28;20212;-66
2022/02/11 10:14:27;;;;;;;36.00;18.02;;;;;;;;;;6304833;28;20049;-67
2022/02/11 10:17:29;;;;;;;28.80;15.10;;;;;;;;;;6287140;28;20052;-68
2022/02/11 10:20:35;;;;;;;22.35;12.32;;;;;;;;;;6309070;28;20565;-66
2022/02/11 10:23:40;;;;;;;25.60;12.50;;;;;;;;;;6306788;28;20082;-66
2022/02/11 10:26:47;;;;;;;29.60;15.00;;;;;;;;;;6312451;28;20170;-66
2022/02/11 10:29:49;;;;;;;28.67;14.85;;;;;;;;;;6312394;28;20123;-66
2022/02/11 10:32:54;;;;;;;30.50;16.23;;;;;;;;;;6303796;28;20099;-66
2022/02/11 10:35:57;;;;;;;24.35;12.77;;;;;;;;;;6304558;28;20052;-66
2022/02/11 10:39:10;;;;;;;20.38;9.27;;;;;;;;;;6297566;28;20352;-66
2022/02/11 10:42:12;;;;;;;18.98;10.20;;;;;;;;;;6308067;28;20068;-65
2022/02/11 10:45:31;;;;;;;17.15;7.60;;;;;;;;;;6299861;28;20182;-65
2022/02/11 10:48:36;;;;;;;23.67;8.02;;;;;;;;;;6301540;28;20048;-66
2022/02/11 10:51:42;;;;;;;20.55;8.43;;;;;;;;;;6302128;28;20144;-66
2022/02/11 10:54:45;;;;;;;20.40;8.80;;;;;;;;;;6299410;28;20163;-65
2022/02/11 10:57:54;;;;;;;19.25;11.05;;;;;;;;;;6304597;28;20048;-68
2022/02/11 11:00:58;;;;;;;23.17;10.68;;;;;;;;;;6301966;28;20040;-65
2022/02/11 11:04:01;;;;;;;20.15;10.40;;;;;;;;;;6303885;28;20447;-66
2022/02/11 11:07:03;;;;;;;21.38;9.30;;;;;;;;;;6308647;28;20572;-65
2022/02/11 11:10:08;;;;;;;23.92;9.73;;;;;;;;;;6303820;28;20057;-65
2022/02/11 11:13:15;;;;;;;20.67;9.77;;;;;;;;;;6304624;28;20052;-65
2022/02/11 11:16:18;;;;;;;22.42;10.70;;;;;;;;;;6302020;28;20622;-66
2022/02/11 11:19:21;;;;;;;15.95;8.68;;;;;;;;;;6300158;28;20502;-65
2022/02/11 11:22:26;;;;;;;18.87;8.63;;;;;;;;;;6300676;28;20123;-66
2022/02/11 11:25:49;;;;;;;22.55;9.35;;;;;;;;;;6295634;28;20060;-65
2022/02/11 11:28:53;;;;;;;21.77;8.65;;;;;;;;;;6300688;28;20424;-65
2022/02/11 11:31:56;;;;;;;19.40;7.85;;;;;;;;;;6297633;28;20697;-66
2022/02/11 11:35:07;;;;;;;17.10;8.15;;;;;;;;;;6301705;28;20140;-67
2022/02/11 11:38:13;;;;;;;19.13;7.95;;;;;;;;;;6301479;28;20117;-66
2022/02/11 11:41:22;;;;;;;17.85;8.10;;;;;;;;;;6296762;28;20055;-66
2022/02/11 11:44:24;;;;;;;16.40;7.38;;;;;;;;;;6302410;28;20310;-66
2022/02/11 11:47:28;;;;;;;19.75;7.55;;;;;;;;;;6298005;28;20056;-65
2022/02/11 11:50:33;;;;;;;15.70;8.50;;;;;;;;;;6295128;28;20044;-66
2022/02/11 11:53:35;;;;;;;22.00;8.25;;;;;;;;;;6299698;28;20056;-66
2022/02/11 11:56:38;;;;;;;15.90;7.72;;;;;;;;;;6297873;28;20068;-66
2022/02/11 11:59:44;;;;;;;17.07;7.97;;;;;;;;;;6301273;28;20149;-66
2022/02/11 12:02:50;;;;;;;14.65;6.65;;;;;;;;;;6296275;28;20071;-66
2022/02/11 12:05:55;;;;;;;18.60;8.25;;;;;;;;;;6303578;28;20053;-65
2022/02/11 12:08:57;;;;;;;17.52;8.20;;;;;;;;;;6299175;28;20045;-65
2022/02/11 12:12:01;;;;;;;14.75;8.00;;;;;;;;;;6305475;28;20177;-66
2022/02/11 12:15:04;;;;;;;16.77;8.05;;;;;;;;;;6305885;28;20056;-66
2022/02/11 12:18:06;;;;;;;17.13;7.93;;;;;;;;;;6299698;28;20083;-65
2022/02/11 12:21:09;;;;;;;14.05;8.05;;;;;;;;;;6301188;28;20135;-66
2022/02/11 12:27:31;;;;;;;18.17;7.90;;;;;;;;;;6300198;28;20044;-66
2022/02/11 12:30:42;;;;;;;14.68;7.70;;;;;;;;;;6302172;28;20055;-66
2022/02/11 12:33:44;;;;;;;15.15;7.43;;;;;;;;;;6306436;28;20625;-65
2022/02/11 12:36:47;;;;;;;20.40;8.88;;;;;;;;;;6307806;28;20132;-65
2022/02/11 12:39:49;;;;;;;24.10;9.27;;;;;;;;;;6309102;28;20130;-64
2022/02/11 12:42:52;;;;;;;50.42;16.38;;;;;;;;;;6304637;28;20138;-64
2022/02/11 12:45:54;;;;;;;18.48;8.57;;;;;;;;;;6307738;28;20503;-65
2022/02/11 12:48:59;;;;;;;25.77;10.80;;;;;;;;;;6308992;28;20067;-66
2022/02/11 12:52:02;;;;;;;14.48;7.85;;;;;;;;;;6309580;28;20064;-65
2022/02/11 12:55:14;;;;;;;13.30;7.97;;;;;;;;;;6307867;28;20143;-66
2022/02/11 12:58:18;;;;;;;15.75;7.25;;;;;;;;;;6305584;28;20468;-68
2022/02/11 13:01:30;;;;;;;18.50;7.90;;;;;;;;;;6306154;28;20044;-65
2022/02/11 13:04:31;;;;;;;16.23;8.13;;;;;;;;;;6305123;28;20074;-65
2022/02/11 13:07:36;;;;;;;16.85;8.40;;;;;;;;;;6309151;28;20131;-64
2022/02/11 13:10:39;;;;;;;14.63;8.32;;;;;;;;;;6301804;28;20046;-69
2022/02/11 13:13:41;;;;;;;14.40;7.63;;;;;;;;;;6309299;28;20113;-68
2022/02/11 13:16:42;;;;;;;14.55;7.90;;;;;;;;;;6301822;28;20098;-67
2022/02/11 13:19:48;;;;;;;15.73;7.72;;;;;;;;;;6309276;28;20044;-69
2022/02/11 13:22:52;;;;;;;14.40;7.40;;;;;;;;;;6305921;28;20547;-69
2022/02/11 13:25:55;;;;;;;16.90;8.35;;;;;;;;;;6304776;28;20071;-70
2022/02/11 13:28:57;;;;;;;12.98;7.65;;;;;;;;;;6306398;28;20051;-69
2022/02/11 13:31:59;;;;;;;14.63;8.02;;;;;;;;;;6306267;28;20411;-69
2022/02/11 13:35:01;;;;;;;18.92;8.13;;;;;;;;;;6308644;28;20045;-69
2022/02/11 13:38:04;;;;;;;16.80;7.57;;;;;;;;;;6305875;28;20048;-69
2022/02/11 13:41:08;;;;;;;15.70;8.27;;;;;;;;;;6306187;28;20431;-69
2022/02/11 13:44:12;;;;;;;14.48;6.70;;;;;;;;;;6306959;28;20052;-69
2022/02/11 13:47:16;;;;;;;15.88;6.57;;;;;;;;;;6303638;28;20515;-69
2022/02/11 13:50:17;;;;;;;14.48;6.75;;;;;;;;;;6309012;28;20044;-69
2022/02/11 13:53:29;;;;;;;14.57;6.57;;;;;;;;;;6300777;28;20072;-67
2022/02/11 13:56:37;;;;;;;15.57;7.07;;;;;;;;;;6301406;28;20132;-69
2022/02/11 13:59:39;;;;;;;14.50;6.50;;;;;;;;;;6300645;28;20131;-69
2022/02/11 14:02:42;;;;;;;14.95;6.80;;;;;;;;;;6301631;28;20045;-68
2022/02/11 14:05:44;;;;;;;17.95;6.95;;;;;;;;;;6307660;28;20137;-69
2022/02/11 14:08:47;;;;;;;15.70;7.03;;;;;;;;;;6298086;28;20174;-69
2022/02/11 14:11:49;;;;;;;13.20;7.13;;;;;;;;;;6311319;28;20040;-68
2022/02/11 14:14:51;;;;;;;14.50;6.82;;;;;;;;;;6304508;28;20123;-69
2022/02/11 14:17:53;;;;;;;16.50;7.28;;;;;;;;;;6301207;28;20383;-66
2022/02/11 14:20:56;;;;;;;16.83;6.53;;;;;;;;;;6303776;28;20131;-66
2022/02/11 14:24:01;;;;;;;18.05;6.68;;;;;;;;;;6303641;28;20070;-66
2022/02/11 14:27:03;;;;;;;13.90;7.05;;;;;;;;;;6303515;28;20490;-66
2022/02/11 14:30:06;;;;;;;16.13;7.15;;;;;;;;;;6299298;28;20552;-65
2022/02/11 14:33:08;;;;;;;22.45;8.00;;;;;;;;;;6300303;28;20045;-67
2022/02/11 14:36:10;;;;;;;38.47;8.60;;;;;;;;;;6299917;28;20406;-66
2022/02/11 14:39:14;;;;;;;19.42;7.55;;;;;;;;;;6305289;28;20052;-67
2022/02/11 14:42:16;;;;;;;17.17;7.20;;;;;;;;;;6304409;28;20052;-65
2022/02/11 14:45:17;;;;;;;33.13;7.70;;;;;;;;;;6302610;28;20055;-65
2022/02/11 14:48:19;;;;;;;12.05;6.18;;;;;;;;;;6300684;28;20178;-65
2022/02/11 14:51:20;;;;;;;14.40;6.68;;;;;;;;;;6302647;28;20136;-67
2022/02/11 14:54:24;;;;;;;13.40;6.43;;;;;;;;;;6303187;28;20135;-66
2022/02/11 14:57:26;;;;;;;14.80;6.90;;;;;;;;;;6304611;28;20404;-66
2022/02/11 15:00:27;;;;;;;15.30;6.70;;;;;;;;;;6299101;28;20123;-70
2022/02/11 15:03:29;;;;;;;11.32;6.72;;;;;;;;;;6306633;28;20137;-66
2022/02/11 15:06:30;;;;;;;12.77;5.70;;;;;;;;;;6301512;28;20076;-66
2022/02/11 15:09:34;;;;;;;14.82;6.75;;;;;;;;;;6303149;28;20349;-66
2022/02/11 15:12:35;;;;;;;13.80;5.80;;;;;;;;;;6300336;28;20186;-66
2022/02/11 15:15:38;;;;;;;13.25;5.40;;;;;;;;;;6309457;28;20059;-66
2022/02/11 15:18:40;;;;;;;11.80;6.28;;;;;;;;;;6295800;28;20044;-67
2022/02/11 15:21:41;;;;;;;13.38;5.38;;;;;;;;;;6298185;28;20052;-67
2022/02/11 15:24:48;;;;;;;14.90;6.25;;;;;;;;;;6304528;28;20443;-66
2022/02/11 15:27:50;;;;;;;17.25;6.40;;;;;;;;;;6303756;28;20539;-66
2022/02/11 15:30:51;;;;;;;11.85;5.75;;;;;;;;;;6301329;28;20090;-67
2022/02/11 15:33:53;;;;;;;14.65;6.13;;;;;;;;;;6306191;28;20068;-67
2022/02/11 15:36:55;;;;;;;13.88;5.90;;;;;;;;;;6294728;28;20125;-67
2022/02/11 15:39:58;;;;;;;16.80;6.47;;;;;;;;;;6301359;28;20146;-66
2022/02/11 15:43:00;;;;;;;17.50;5.70;;;;;;;;;;6299169;28;20562;-66
2022/02/11 15:46:02;;;;;;;18.17;6.43;;;;;;;;;;6305149;28;20110;-66
2022/02/11 15:49:03;;;;;;;14.90;6.53;;;;;;;;;;6300287;28;20044;-66
2022/02/11 15:52:06;;;;;;;13.55;6.25;;;;;;;;;;6304374;28;20198;-67
2022/02/11 15:55:10;;;;;;;18.85;6.55;;;;;;;;;;6299183;28;20154;-66
2022/02/11 15:58:12;;;;;;;13.93;6.47;;;;;;;;;;6300498;28;20165;-67
2022/02/11 16:01:13;;;;;;;15.20;6.15;;;;;;;;;;6300259;28;20567;-66
2022/02/11 16:04:15;;;;;;;14.57;6.55;;;;;;;;;;6302808;28;20056;-67
2022/02/11 16:07:17;;;;;;;27.40;7.05;;;;;;;;;;6302558;28;20098;-66
2022/02/11 16:10:20;;;;;;;16.88;6.32;;;;;;;;;;6304832;28;20040;-68
2022/02/11 16:13:22;;;;;;;11.93;5.65;;;;;;;;;;6309494;28;20420;-67
2022/02/11 16:16:23;;;;;;;15.93;5.75;;;;;;;;;;6302646;28;20504;-66
2022/02/11 16:19:25;;;;;;;11.90;5.03;;;;;;;;;;6303839;28;20158;-66
2022/02/11 16:22:27;;;;;;;12.27;4.82;;;;;;;;;;6305288;28;20541;-67
2022/02/11 16:25:31;;;;;;;15.88;5.68;;;;;;;;;;6306994;28;20045;-68
2022/02/11 16:28:32;;;;;;;;;;;;;;;;;;6306294;28;20048;-67
2022/02/11 16:31:34;;;;;;;16.92;5.75;;;;;;;;;;6306544;28;20360;-68
2022/02/11 16:34:36;;;;;;;13.68;5.70;;;;;;;;;;6302629;28;20143;-67
2022/02/11 16:37:38;;;;;;;10.68;4.80;;;;;;;;;;6301494;28;20040;-67
2022/02/11 16:40:41;;;;;;;14.98;5.63;;;;;;;;;;6294188;28;20074;-68
2022/02/11 16:43:43;;;;;;;20.10;6.32;;;;;;;;;;6303788;28;20040;-66
2022/02/11 16:46:44;;;;;;;12.90;5.72;;;;;;;;;;6302401;28;20117;-68
2022/02/11 16:49:48;;;;;;;12.50;5.80;;;;;;;;;;6307735;28;20547;-67
2022/02/11 16:52:51;;;;;;;16.75;5.70;;;;;;;;;;6304310;28;20423;-67
2022/02/11 16:55:54;;;;;;;17.92;5.57;;;;;;;;;;6311213;28;20056;-67
2022/02/11 16:58:55;;;;;;;15.15;5.88;;;;;;;;;;6302565;28;20076;-67
2022/02/11 17:01:59;;;;;;;13.68;5.28;;;;;;;;;;6300703;28;20125;-67
2022/02/11 17:05:01;;;;;;;;;;;;;;;;;;6302902;28;20063;-67
2022/02/11 17:08:02;;;;;;;17.60;6.78;;;;;;;;;;6301085;28;20364;-67
2022/02/11 17:11:06;;;;;;;14.20;5.55;;;;;;;;;;6303824;28;20129;-67
2022/02/11 17:14:07;;;;;;;15.57;5.70;;;;;;;;;;6300816;28;20125;-66
2022/02/11 17:17:09;;;;;;;14.27;5.10;;;;;;;;;;6301288;28;20446;-67
2022/02/11 17:20:13;;;;;;;14.73;6.60;;;;;;;;;;6304735;28;20066;-67
2022/02/11 17:23:17;;;;;;;11.63;4.20;;;;;;;;;;6307586;28;20094;-68
2022/02/11 17:26:20;;;;;;;13.20;4.03;;;;;;;;;;6303615;28;20177;-67
2022/02/11 17:29:22;;;;;;;13.35;2.90;;;;;;;;;;6307947;28;20128;-66
2022/02/11 17:32:23;;;;;;;7.15;2.20;;;;;;;;;;6304939;28;20041;-65
2022/02/11 17:35:25;;;;;;;6.57;1.73;;;;;;;;;;6311284;28;20525;-67
2022/02/11 17:38:26;;;;;;;4.90;1.30;;;;;;;;;;6304399;28;20055;-66
2022/02/11 17:41:29;;;;;;;7.30;1.33;;;;;;;;;;6306277;28;20083;-67
2022/02/11 17:44:31;;;;;;;5.88;1.17;;;;;;;;;;6307592;28;20043;-65
2022/02/11 17:47:33;;;;;;;5.80;1.10;;;;;;;;;;6302419;28;20074;-66
2022/02/11 17:50:34;;;;;;;4.03;1.52;;;;;;;;;;6303818;28;20044;-70
2022/02/11 17:53:36;;;;;;;3.15;1.38;;;;;;;;;;6305324;28;20592;-66
2022/02/11 17:56:39;;;;;;;3.85;1.05;;;;;;;;;;6308208;28;20056;-66
2022/02/11 17:59:40;;;;;;;4.70;1.02;;;;;;;;;;6310324;28;20230;-67
2022/02/11 18:02:42;;;;;;;3.65;1.30;;;;;;;;;;6310809;28;20130;-65
2022/02/11 18:05:44;;;;;;;2.78;1.17;;;;;;;;;;6307066;28;20064;-65
2022/02/11 18:08:45;;;;;;;3.78;1.52;;;;;;;;;;6305451;28;20206;-63
2022/02/11 18:11:48;;;;;;;5.50;0.90;;;;;;;;;;6311208;28;20048;-64
2022/02/11 18:14:50;;;;;;;2.35;0.90;;;;;;;;;;6302044;28;20079;-64
2022/02/11 18:17:52;;;;;;;1.65;0.95;;;;;;;;;;6303827;28;20178;-65
2022/02/11 18:20:53;;;;;;;2.85;1.25;;;;;;;;;;6305132;28;20557;-65
2022/02/11 18:23:55;;;;;;;1.77;0.88;;;;;;;;;;6302748;28;20154;-65
2022/02/11 18:26:58;;;;;;;2.63;1.27;;;;;;;;;;6304562;28;20474;-64
2022/02/11 18:30:00;;;;;;;4.45;1.00;;;;;;;;;;6302766;28;20139;-64
2022/02/11 18:33:02;;;;;;;2.30;1.13;;;;;;;;;;6306158;28;20213;-64
2022/02/11 18:36:04;;;;;;;4.45;1.20;;;;;;;;;;6299170;28;20123;-63
2022/02/11 18:39:07;;;;;;;3.55;1.63;;;;;;;;;;6298560;28;20052;-64
2022/02/11 18:42:10;;;;;;;7.18;1.42;;;;;;;;;;6298245;28;20056;-64
2022/02/11 18:45:11;;;;;;;3.22;1.50;;;;;;;;;;6303376;28;20048;-63
2022/02/11 18:48:20;;;;;;;4.00;1.70;;;;;;;;;;6302864;28;20443;-63
2022/02/11 18:51:21;;;;;;;3.17;1.50;;;;;;;;;;6303929;28;20055;-63
2022/02/11 18:54:23;;;;;;;2.05;1.30;;;;;;;;;;6303733;28;20052;-64
2022/02/11 18:57:26;;;;;;;2.25;1.30;;;;;;;;;;6300247;28;20503;-63
2022/02/11 19:00:27;;;;;;;5.03;1.40;;;;;;;;;;6305912;28;20074;-63
2022/02/11 19:03:29;;;;;;;1.83;1.23;;;;;;;;;;6302339;28;20074;-63
2022/02/11 19:06:30;;;;;;;4.07;1.50;;;;;;;;;;6303181;28;20127;-64
2022/02/11 19:09:32;;;;;;;4.85;2.10;;;;;;;;;;6303879;28;20579;-65
2022/02/11 19:12:35;;;;;;;3.03;1.90;;;;;;;;;;6306819;28;20044;-63
2022/02/11 19:15:38;;;;;;;3.22;1.75;;;;;;;;;;6305233;28;20244;-64
2022/02/11 19:18:40;;;;;;;3.20;1.58;;;;;;;;;;6303755;28;20499;-63
2022/02/11 19:21:42;;;;;;;3.88;1.92;;;;;;;;;;6306527;28;20082;-64
2022/02/11 19:24:49;;;;;;;3.63;1.80;;;;;;;;;;6305134;28;20488;-64
2022/02/11 19:27:52;;;;;;;3.30;1.67;;;;;;;;;;6305706;28;20051;-65
2022/02/11 19:30:53;;;;;;;4.90;1.67;;;;;;;;;;6304065;28;20044;-65
2022/02/11 19:33:55;;;;;;;5.35;1.58;;;;;;;;;;6302400;28;20135;-65
2022/02/11 19:36:56;;;;;;;3.50;1.90;;;;;;;;;;6299346;28;20206;-65
2022/02/11 19:40:00;;;;;;;2.13;1.10;;;;;;;;;;6300568;28;20381;-64
2022/02/11 19:43:07;;;;;;;2.67;1.30;;;;;;;;;;6295663;28;20053;-64
2022/02/11 19:46:10;;;;;;;3.38;1.67;;;;;;;;;;6302348;28;20032;-65
2022/02/11 19:49:12;;;;;;;2.60;1.40;;;;;;;;;;6307927;28;20068;-64
2022/02/11 19:52:13;;;;;;;2.67;1.40;;;;;;;;;;6297764;28;20041;-64
2022/02/11 19:55:16;;;;;;;4.55;1.48;;;;;;;;;;6298196;28;20557;-65
2022/02/11 19:58:19;;;;;;;2.30;1.33;;;;;;;;;;6298410;28;20411;-65
2022/02/11 20:01:20;;;;;;;2.28;1.70;;;;;;;;;;6298245;28;20067;-64
2022/02/11 20:04:22;;;;;;;2.40;1.75;;;;;;;;;;6304040;28;20087;-65
2022/02/11 20:07:26;;;;;;;3.50;1.55;;;;;;;;;;6302977;28;20072;-64
2022/02/11 20:10:28;;;;;;;3.42;2.20;;;;;;;;;;6301927;28;20049;-64
2022/02/11 20:13:34;;;;;;;4.43;1.90;;;;;;;;;;6310335;28;20052;-65
2022/02/11 20:16:37;;;;;;;5.82;2.00;;;;;;;;;;6302545;28;20512;-65
2022/02/11 20:19:41;;;;;;;3.80;1.90;;;;;;;;;;6301207;28;20522;-65
2022/02/11 20:22:43;;;;;;;3.70;2.07;;;;;;;;;;6298455;28;20045;-64
2022/02/11 20:25:44;;;;;;;4.22;1.80;;;;;;;;;;6301887;28;20085;-63
2022/02/11 20:28:47;;;;;;;4.90;2.08;;;;;;;;;;6301146;28;20127;-64
2022/02/11 20:31:49;;;;;;;3.80;1.95;;;;;;;;;;6299744;28;20077;-65
2022/02/11 20:34:50;;;;;;;2.63;1.70;;;;;;;;;;6303123;28;20048;-64
2022/02/11 20:37:52;;;;;;;5.55;2.13;;;;;;;;;;6306218;28;20409;-65
2022/02/11 20:40:58;;;;;;;3.63;2.35;;;;;;;;;;6303692;28;20045;-64
2022/02/11 20:44:03;;;;;;;6.15;2.63;;;;;;;;;;6307260;28;20053;-64
2022/02/11 20:47:05;;;;;;;3.97;2.28;;;;;;;;;;6303611;28;20047;-64
2022/02/11 20:53:27;;;;;;;2.67;1.52;;;;;;;;;;6305110;28;20130;-64
2022/02/11 20:56:28;;;;;;;2.88;1.45;;;;;;;;;;6312187;28;20056;-63
2022/02/11 20:59:31;;;;;;;2.15;1.20;;;;;;;;;;6309476;28;20048;-63
2022/02/11 21:02:34;;;;;;;6.18;1.30;;;;;;;;;;6314304;28;20502;-64
2022/02/11 21:05:36;;;;;;;2.97;1.20;;;;;;;;;;6306690;28;20052;-63
2022/02/11 21:08:38;;;;;;;3.53;1.00;;;;;;;;;;6311801;28;20078;-65
2022/02/11 21:11:40;;;;;;;5.45;2.80;;;;;;;;;;6316639;28;20515;-64
2022/02/11 21:14:46;;;;;;;11.10;5.60;;;;;;;;;;6313209;28;20056;-65
2022/02/11 21:17:48;;;;;;;16.02;7.40;;;;;;;;;;6313731;28;20133;-64
2022/02/11 21:20:50;;;;;;;18.48;12.35;;;;;;;;;;6306197;28;20082;-63
2022/02/11 21:23:52;;;;;;;31.35;17.52;;;;;;;;;;6314041;28;20499;-64
2022/02/11 21:26:54;;;;;;;35.22;21.73;;;;;;;;;;6308297;28;20044;-65